Time;durP1;ratioP1;P1;durP2;ratioP2;P2;SDS_P1;SDS_P2;PMS_P1;PMS_P2;Temp;Humidity;BMP_temperature;BMP_pressure;BME280_temperature;BME280_humidity;BME280_pressure;Samples;Min_cycle;Max_cycle;Signal;HPM_P1;HPM_P2
2022/03/13 00:03:19;;;;;;;25.52;19.98;;;;;;;;;;10304303;28;20023;-73
2022/03/13 00:08:27;;;;;;;25.30;16.55;;;;;;;;;;10287233;28;20027;-76
2022/03/13 00:13:30;;;;;;;25.10;17.83;;;;;;;;;;10287369;28;20117;-70
2022/03/13 00:18:35;;;;;;;25.67;22.67;;;;;;;;;;10279963;28;20445;-71
2022/03/13 00:23:35;;;;;;;15.68;14.20;;;;;;;;;;10301834;28;20026;-70
2022/03/13 00:28:37;;;;;;;20.92;14.50;;;;;;;;;;10303055;28;20049;-71
2022/03/13 00:33:37;;;;;;;27.38;24.23;;;;;;;;;;10287754;28;20445;-69
2022/03/13 00:38:38;;;;;;;21.73;19.50;;;;;;;;;;10262885;28;20027;-75
2022/03/13 00:43:38;;;;;;;31.07;21.60;;;;;;;;;;10262375;28;20024;-71
2022/03/13 00:48:39;;;;;;;18.30;15.32;;;;;;;;;;10262176;28;20023;-74
2022/03/13 00:53:41;;;;;;;22.05;19.67;;;;;;;;;;10299843;28;20058;-72
2022/03/13 00:58:42;;;;;;;20.15;16.60;;;;;;;;;;10302065;28;20497;-71
2022/03/13 01:03:42;;;;;;;31.40;25.85;;;;;;;;;;10286790;28;20023;-75
2022/03/13 01:08:46;;;;;;;34.30;30.77;;;;;;;;;;10261273;28;20055;-72
2022/03/13 01:13:47;;;;;;;27.63;25.08;;;;;;;;;;10244911;28;20038;-72
2022/03/13 01:18:50;;;;;;;16.13;14.43;;;;;;;;;;10260767;28;20085;-73
2022/03/13 01:23:59;;;;;;;21.95;16.88;;;;;;;;;;10299544;28;20030;-72
2022/03/13 01:29:00;;;;;;;23.00;21.23;;;;;;;;;;10288254;28;20053;-74
2022/03/13 01:34:01;;;;;;;15.55;14.50;;;;;;;;;;10267167;28;20117;-73
2022/03/13 01:39:02;;;;;;;16.13;14.55;;;;;;;;;;10260925;28;20019;-74
2022/03/13 01:44:03;;;;;;;17.42;15.80;;;;;;;;;;10276302;28;20033;-76
2022/03/13 01:49:07;;;;;;;13.07;11.82;;;;;;;;;;10300102;28;20033;-75
2022/03/13 01:54:09;;;;;;;16.48;14.90;;;;;;;;;;10282907;28;20089;-75
2022/03/13 01:59:10;;;;;;;14.93;13.30;;;;;;;;;;10283575;28;20041;-72
2022/03/13 02:04:12;;;;;;;14.20;12.73;;;;;;;;;;10271052;28;20030;-70
2022/03/13 02:09:12;;;;;;;14.70;13.35;;;;;;;;;;10299141;28;20560;-72
2022/03/13 02:14:17;;;;;;;20.27;11.93;;;;;;;;;;10282209;28;20023;-69
2022/03/13 02:19:17;;;;;;;14.63;13.25;;;;;;;;;;10282493;28;20298;-69
2022/03/13 02:24:23;;;;;;;18.05;16.58;;;;;;;;;;10299427;28;20041;-71
2022/03/13 02:29:23;;;;;;;25.55;23.65;;;;;;;;;;10282629;28;20033;-69
2022/03/13 02:34:24;;;;;;;20.27;18.25;;;;;;;;;;10282352;28;20030;-69
2022/03/13 02:39:25;;;;;;;13.25;12.55;;;;;;;;;;10282857;28;20472;-71
2022/03/13 02:44:25;;;;;;;15.88;15.02;;;;;;;;;;10282289;28;20512;-72
2022/03/13 02:49:27;;;;;;;11.93;10.82;;;;;;;;;;10284012;28;20467;-76
2022/03/13 02:54:27;;;;;;;21.25;19.73;;;;;;;;;;10285869;28;20094;-74
2022/03/13 02:59:28;;;;;;;24.52;23.10;;;;;;;;;;10298420;28;20087;-77
2022/03/13 03:04:28;;;;;;;28.98;27.17;;;;;;;;;;10285223;28;20093;-70
2022/03/13 03:09:29;;;;;;;31.10;28.60;;;;;;;;;;10305578;28;20537;-71
2022/03/13 03:14:30;;;;;;;24.88;23.10;;;;;;;;;;10289547;28;20405;-74
2022/03/13 03:19:30;;;;;;;18.08;16.58;;;;;;;;;;10305565;28;20030;-71
2022/03/13 03:24:30;;;;;;;18.30;16.58;;;;;;;;;;10290116;28;20023;-70
2022/03/13 03:29:31;;;;;;;14.50;13.48;;;;;;;;;;10305112;28;20026;-69
2022/03/13 03:34:31;;;;;;;20.87;19.30;;;;;;;;;;10290034;28;20509;-70
2022/03/13 03:39:32;;;;;;;15.75;14.57;;;;;;;;;;10304273;28;20345;-72
2022/03/13 03:44:32;;;;;;;24.55;22.83;;;;;;;;;;10304251;28;20033;-71
2022/03/13 03:49:34;;;;;;;18.27;16.48;;;;;;;;;;10303470;28;20042;-71
2022/03/13 03:54:34;;;;;;;37.63;35.20;;;;;;;;;;10304042;28;20061;-71
2022/03/13 03:59:35;;;;;;;27.13;25.13;;;;;;;;;;10287899;28;20107;-71
2022/03/13 04:04:35;;;;;;;24.50;22.80;;;;;;;;;;10289046;28;20034;-70
2022/03/13 04:09:36;;;;;;;16.17;14.63;;;;;;;;;;10303372;28;20859;-70
2022/03/13 04:14:37;;;;;;;21.45;19.58;;;;;;;;;;10302314;28;20031;-74
2022/03/13 04:19:37;;;;;;;23.15;21.58;;;;;;;;;;10303542;28;20109;-71
2022/03/13 04:24:38;;;;;;;19.70;17.90;;;;;;;;;;10263489;28;20034;-70
2022/03/13 04:29:39;;;;;;;19.00;17.10;;;;;;;;;;10248024;28;20030;-75
2022/03/13 04:34:39;;;;;;;27.70;25.52;;;;;;;;;;10262867;28;20030;-71
2022/03/13 04:39:40;;;;;;;31.67;29.20;;;;;;;;;;10274852;28;20027;-71
2022/03/13 04:44:40;;;;;;;20.98;19.23;;;;;;;;;;10302153;28;20030;-73
2022/03/13 04:49:41;;;;;;;29.17;26.92;;;;;;;;;;10302193;28;20027;-72
2022/03/13 04:54:41;;;;;;;21.10;19.27;;;;;;;;;;10301980;28;20034;-72
2022/03/13 04:59:41;;;;;;;21.65;19.88;;;;;;;;;;10301274;28;20022;-70
2022/03/13 05:04:43;;;;;;;26.73;24.75;;;;;;;;;;10285213;28;20018;-70
2022/03/13 05:09:43;;;;;;;20.48;18.92;;;;;;;;;;10301508;28;20023;-69
2022/03/13 05:14:43;;;;;;;23.67;21.45;;;;;;;;;;10285936;28;20050;-70
2022/03/13 05:19:44;;;;;;;25.63;23.57;;;;;;;;;;10301364;28;20394;-70
2022/03/13 05:24:46;;;;;;;23.50;21.17;;;;;;;;;;10285543;28;20345;-70
2022/03/13 05:29:46;;;;;;;30.85;27.50;;;;;;;;;;10300024;28;20015;-70
2022/03/13 05:34:47;;;;;;;25.58;23.30;;;;;;;;;;10282788;28;20023;-70
2022/03/13 05:39:47;;;;;;;20.90;17.55;;;;;;;;;;10300347;28;20030;-70
2022/03/13 05:44:47;;;;;;;14.35;13.00;;;;;;;;;;10299694;28;20068;-70
2022/03/13 05:49:48;;;;;;;17.20;13.38;;;;;;;;;;10284570;28;20035;-70
2022/03/13 05:54:48;;;;;;;15.48;12.65;;;;;;;;;;10299388;28;20097;-70
2022/03/13 05:59:48;;;;;;;18.43;13.67;;;;;;;;;;10283838;28;20380;-72
2022/03/13 06:04:51;;;;;;;14.23;12.90;;;;;;;;;;10284116;28;20026;-71
2022/03/13 06:09:52;;;;;;;17.35;16.00;;;;;;;;;;10284584;28;20053;-70
2022/03/13 06:14:52;;;;;;;20.50;18.65;;;;;;;;;;10283786;28;20684;-76
2022/03/13 06:19:53;;;;;;;28.42;19.20;;;;;;;;;;10298856;28;20477;-74
2022/03/13 06:24:54;;;;;;;27.42;18.10;;;;;;;;;;10286460;28;20101;-72
2022/03/13 06:29:54;;;;;;;25.63;18.33;;;;;;;;;;10297368;28;20033;-72
2022/03/13 06:34:54;;;;;;;21.83;12.48;;;;;;;;;;10261887;28;20281;-73
2022/03/13 06:39:55;;;;;;;24.63;11.52;;;;;;;;;;10273678;28;20020;-72
2022/03/13 06:44:55;;;;;;;22.63;12.32;;;;;;;;;;10280540;28;20515;-70
2022/03/13 06:49:55;;;;;;;26.23;11.93;;;;;;;;;;10306407;28;20390;-70
2022/03/13 06:54:56;;;;;;;38.07;12.67;;;;;;;;;;10284799;28;20063;-73
2022/03/13 07:00:00;;;;;;;31.87;12.70;;;;;;;;;;10306290;28;20609;-70
2022/03/13 07:05:00;;;;;;;22.55;11.55;;;;;;;;;;10305585;28;20022;-73
2022/03/13 07:10:01;;;;;;;24.15;11.02;;;;;;;;;;10290905;28;20027;-74
2022/03/13 07:15:01;;;;;;;25.57;11.20;;;;;;;;;;10305577;28;20046;-70
2022/03/13 07:20:02;;;;;;;19.15;11.23;;;;;;;;;;10304864;28;20023;-69
2022/03/13 07:25:03;;;;;;;25.08;11.30;;;;;;;;;;10304768;28;20033;-70
2022/03/13 07:30:08;;;;;;;29.50;11.07;;;;;;;;;;10303330;28;20031;-69
2022/03/13 07:35:08;;;;;;;22.33;10.82;;;;;;;;;;10285698;28;20027;-73
2022/03/13 07:40:09;;;;;;;26.63;11.52;;;;;;;;;;10289332;28;20034;-74
2022/03/13 07:45:09;;;;;;;24.25;11.82;;;;;;;;;;10304185;28;20481;-74
2022/03/13 07:50:10;;;;;;;24.08;11.20;;;;;;;;;;10289203;28;20023;-72
2022/03/13 07:55:10;;;;;;;24.08;11.02;;;;;;;;;;10287714;28;20023;-74
2022/03/13 08:00:12;;;;;;;21.58;11.80;;;;;;;;;;10303971;28;20022;-74
2022/03/13 08:05:13;;;;;;;28.17;12.68;;;;;;;;;;10303125;28;20040;-74
2022/03/13 08:10:15;;;;;;;21.13;11.55;;;;;;;;;;10304098;28;20481;-74
2022/03/13 08:15:15;;;;;;;22.02;11.32;;;;;;;;;;10302990;28;20042;-74
2022/03/13 08:20:15;;;;;;;26.25;11.65;;;;;;;;;;10301490;28;20027;-71
2022/03/13 08:25:19;;;;;;;27.60;11.70;;;;;;;;;;10303538;28;20037;-74
2022/03/13 08:30:19;;;;;;;27.10;10.55;;;;;;;;;;10296698;28;20266;-70
2022/03/13 08:35:20;;;;;;;24.85;11.65;;;;;;;;;;10273383;28;20486;-70
2022/03/13 08:40:20;;;;;;;27.45;11.13;;;;;;;;;;10276361;28;20035;-73
2022/03/13 08:45:20;;;;;;;23.45;11.70;;;;;;;;;;10299180;28;20081;-70
2022/03/13 08:50:21;;;;;;;28.83;14.50;;;;;;;;;;10294783;28;20026;-73
2022/03/13 08:55:22;;;;;;;30.87;14.40;;;;;;;;;;10280150;28;20402;-72
2022/03/13 09:00:24;;;;;;;25.02;14.02;;;;;;;;;;10289951;28;20468;-76
2022/03/13 09:05:24;;;;;;;28.38;13.80;;;;;;;;;;10280924;28;20089;-74
2022/03/13 09:10:24;;;;;;;27.27;13.93;;;;;;;;;;10298951;28;20014;-74
2022/03/13 09:15:25;;;;;;;28.98;13.77;;;;;;;;;;10297494;28;20125;-69
2022/03/13 09:20:25;;;;;;;25.88;14.40;;;;;;;;;;10282112;28;20026;-70
2022/03/13 09:25:25;;;;;;;25.08;13.50;;;;;;;;;;10281741;28;20041;-72
2022/03/13 09:30:26;;;;;;;23.83;13.38;;;;;;;;;;10282418;28;20030;-72
2022/03/13 09:35:26;;;;;;;30.93;14.33;;;;;;;;;;10281698;28;20039;-71
2022/03/13 09:40:27;;;;;;;37.45;16.25;;;;;;;;;;10281527;28;20297;-75
2022/03/13 09:45:28;;;;;;;32.50;15.15;;;;;;;;;;10281922;28;20084;-75
2022/03/13 09:50:28;;;;;;;35.15;16.92;;;;;;;;;;10278768;28;20120;-74
2022/03/13 09:55:29;;;;;;;31.52;14.98;;;;;;;;;;10288021;28;20034;-74
2022/03/13 10:00:29;;;;;;;33.90;14.55;;;;;;;;;;10295986;28;20171;-73
2022/03/13 10:05:39;;;;;;;29.15;14.63;;;;;;;;;;10269195;28;20024;-73
2022/03/13 10:10:50;;;;;;;33.95;16.95;;;;;;;;;;10280171;28;20420;-71
2022/03/13 10:15:50;;;;;;;34.85;16.02;;;;;;;;;;10294767;28;20098;-74
2022/03/13 10:20:51;;;;;;;31.50;14.90;;;;;;;;;;10301446;28;20554;-71
2022/03/13 10:25:52;;;;;;;30.20;16.27;;;;;;;;;;10259238;28;20033;-71
2022/03/13 10:30:59;;;;;;;30.70;15.57;;;;;;;;;;10386542;23;20129;-73
2022/03/13 10:36:12;;;;;;;32.97;15.90;;;;;;;;;;10317291;28;20068;-69
2022/03/13 10:41:13;;;;;;;42.65;18.02;;;;;;;;;;10319793;28;20539;-75
2022/03/13 10:46:23;;;;;;;37.08;16.40;;;;;;;;;;10317324;28;20029;-73
2022/03/13 10:51:34;;;;;;;39.30;16.65;;;;;;;;;;10310694;28;20028;-72
2022/03/13 10:56:34;;;;;;;41.42;18.42;;;;;;;;;;10331469;28;20022;-74
2022/03/13 11:01:35;;;;;;;33.47;18.97;;;;;;;;;;10312910;28;20023;-73
2022/03/13 11:06:35;;;;;;;47.13;18.37;;;;;;;;;;10318944;28;20313;-74
2022/03/13 11:11:36;;;;;;;40.53;19.60;;;;;;;;;;10317938;28;20014;-72
2022/03/13 11:16:37;;;;;;;40.03;20.13;;;;;;;;;;10317339;28;20010;-70
2022/03/13 11:21:38;;;;;;;37.67;16.80;;;;;;;;;;10318204;28;20010;-74
2022/03/13 11:26:40;;;;;;;50.10;16.65;;;;;;;;;;10321694;28;20400;-75
2022/03/13 11:31:43;;;;;;;38.20;18.35;;;;;;;;;;10324709;28;20421;-74
2022/03/13 11:36:50;;;;;;;39.33;16.38;;;;;;;;;;10320279;28;20109;-76
2022/03/13 11:41:51;;;;;;;38.13;17.63;;;;;;;;;;10346911;28;20026;-73
2022/03/13 11:46:52;;;;;;;34.55;16.60;;;;;;;;;;10323632;28;20025;-71
2022/03/13 11:52:16;;;;;;;33.47;12.70;;;;;;;;;;10323417;28;20510;-72
2022/03/13 11:57:16;;;;;;;27.63;12.07;;;;;;;;;;10321127;28;20084;-71
2022/03/13 12:02:52;;;;;;;25.48;11.40;;;;;;;;;;10321626;28;20643;-73
2022/03/13 12:08:05;;;;;;;25.65;8.68;;;;;;;;;;10214422;28;20043;-73
2022/03/13 12:13:06;;;;;;;16.13;6.18;;;;;;;;;;10305619;28;20117;-74
2022/03/13 12:18:18;;;;;;;7.28;3.40;;;;;;;;;;10324847;28;20500;-75
2022/03/13 12:23:26;;;;;;;6.75;3.70;;;;;;;;;;10303120;28;20072;-70
2022/03/13 12:28:30;;;;;;;6.23;3.53;;;;;;;;;;10323980;28;20017;-73
2022/03/13 12:33:31;;;;;;;5.80;3.28;;;;;;;;;;10324366;28;20078;-70
2022/03/13 12:38:33;;;;;;;5.88;3.08;;;;;;;;;;10322355;28;20019;-75
2022/03/13 12:43:47;;;;;;;6.07;2.78;;;;;;;;;;10308862;28;20109;-75
2022/03/13 12:48:59;;;;;;;6.07;3.13;;;;;;;;;;10316282;28;20023;-71
2022/03/13 12:53:59;;;;;;;8.50;4.40;;;;;;;;;;10283588;28;20378;-76
2022/03/13 12:59:00;;;;;;;11.95;4.28;;;;;;;;;;10300710;28;20018;-74
2022/03/13 13:04:00;;;;;;;5.38;3.70;;;;;;;;;;10312806;28;20516;-76
2022/03/13 13:09:00;;;;;;;5.55;3.35;;;;;;;;;;10322278;28;20441;-73
2022/03/13 13:14:01;;;;;;;9.20;3.63;;;;;;;;;;10323599;28;20022;-74
2022/03/13 13:19:02;;;;;;;8.55;3.72;;;;;;;;;;10300292;28;20026;-71
2022/03/13 13:24:23;;;;;;;8.23;4.20;;;;;;;;;;10286877;28;20713;-71
2022/03/13 13:29:50;;;;;;;11.10;3.78;;;;;;;;;;10322666;28;20022;-74
2022/03/13 13:35:00;;;;;;;9.30;4.40;;;;;;;;;;10322033;28;20122;-74
2022/03/13 13:40:01;;;;;;;8.15;4.07;;;;;;;;;;10320094;28;20068;-74
2022/03/13 13:45:02;;;;;;;8.70;4.43;;;;;;;;;;10320491;28;20026;-75
2022/03/13 13:50:12;;;;;;;16.38;4.30;;;;;;;;;;10323387;28;20034;-74
2022/03/13 13:55:22;;;;;;;5.53;2.90;;;;;;;;;;10321939;28;20496;-71
2022/03/13 14:00:28;;;;;;;6.35;3.13;;;;;;;;;;10322100;28;20084;-71
2022/03/13 14:05:28;;;;;;;7.28;3.53;;;;;;;;;;10298643;28;20594;-71
2022/03/13 14:10:29;;;;;;;7.78;3.42;;;;;;;;;;10282387;28;20027;-71
2022/03/13 14:15:30;;;;;;;7.00;3.50;;;;;;;;;;10281068;28;20015;-71
2022/03/13 14:20:30;;;;;;;7.65;3.85;;;;;;;;;;10307880;28;20785;-72
2022/03/13 14:25:31;;;;;;;6.90;3.17;;;;;;;;;;10292080;28;20027;-73
2022/03/13 14:30:31;;;;;;;12.93;3.60;;;;;;;;;;10285266;28;20069;-69
2022/03/13 14:35:32;;;;;;;6.43;3.30;;;;;;;;;;10318142;28;20521;-76
2022/03/13 14:40:32;;;;;;;6.57;2.97;;;;;;;;;;10280947;28;20485;-71
2022/03/13 14:45:32;;;;;;;11.97;4.00;;;;;;;;;;10301189;28;20273;-71
2022/03/13 14:50:33;;;;;;;6.60;3.00;;;;;;;;;;10321566;28;20010;-73
2022/03/13 14:55:34;;;;;;;6.85;3.50;;;;;;;;;;10320446;28;20018;-70
2022/03/13 15:00:34;;;;;;;9.23;4.47;;;;;;;;;;10294589;28;20080;-72
2022/03/13 15:05:34;;;;;;;9.80;3.35;;;;;;;;;;10305480;28;20022;-72
2022/03/13 15:10:35;;;;;;;7.13;3.70;;;;;;;;;;10288121;28;20030;-72
2022/03/13 15:15:35;;;;;;;6.67;3.80;;;;;;;;;;10304084;28;20029;-72
2022/03/13 15:20:38;;;;;;;8.00;4.67;;;;;;;;;;10291223;28;20102;-75
2022/03/13 15:25:38;;;;;;;11.93;5.32;;;;;;;;;;10287815;28;20030;-74
2022/03/13 15:30:39;;;;;;;11.53;4.97;;;;;;;;;;10287327;28;20512;-73
2022/03/13 15:35:39;;;;;;;9.73;4.78;;;;;;;;;;10297844;28;20626;-74
2022/03/13 15:40:40;;;;;;;8.53;4.73;;;;;;;;;;10328687;28;20371;-73
2022/03/13 15:45:40;;;;;;;10.65;4.97;;;;;;;;;;10326729;28;20492;-72
2022/03/13 15:50:42;;;;;;;12.55;4.57;;;;;;;;;;10326635;28;20439;-73
2022/03/13 15:55:43;;;;;;;8.35;4.45;;;;;;;;;;10327229;28;20101;-74
2022/03/13 16:00:43;;;;;;;10.45;5.18;;;;;;;;;;10305869;28;20089;-73
2022/03/13 16:05:43;;;;;;;8.45;5.15;;;;;;;;;;10285861;28;20103;-75
2022/03/13 16:10:44;;;;;;;17.95;5.38;;;;;;;;;;10290209;28;20050;-74
2022/03/13 16:15:44;;;;;;;13.98;6.38;;;;;;;;;;10326026;28;20429;-69
2022/03/13 16:20:45;;;;;;;7.53;4.47;;;;;;;;;;10325933;28;20501;-74
2022/03/13 16:25:45;;;;;;;6.20;4.57;;;;;;;;;;10292574;28;20073;-74
2022/03/13 16:30:45;;;;;;;12.07;6.33;;;;;;;;;;10284660;28;20051;-75
2022/03/13 16:35:46;;;;;;;17.67;8.77;;;;;;;;;;10284355;28;20572;-77
2022/03/13 16:40:46;;;;;;;21.20;9.97;;;;;;;;;;10299553;28;20010;-74
2022/03/13 16:45:46;;;;;;;32.67;9.87;;;;;;;;;;10308664;28;20039;-70
2022/03/13 16:50:51;;;;;;;33.65;10.10;;;;;;;;;;10325585;28;20041;-73
2022/03/13 16:55:51;;;;;;;24.15;10.15;;;;;;;;;;10325941;28;20475;-75
2022/03/13 17:00:52;;;;;;;20.33;9.55;;;;;;;;;;10323538;28;20025;-72
2022/03/13 17:05:53;;;;;;;31.38;12.70;;;;;;;;;;10324099;28;20033;-75
2022/03/13 17:10:53;;;;;;;30.60;12.77;;;;;;;;;;10297157;28;20497;-75
2022/03/13 17:15:53;;;;;;;34.83;12.52;;;;;;;;;;10306784;28;20022;-74
2022/03/13 17:20:55;;;;;;;37.93;13.03;;;;;;;;;;10299570;28;20033;-74
2022/03/13 17:25:55;;;;;;;30.58;12.82;;;;;;;;;;10300291;28;20280;-77
2022/03/13 17:30:55;;;;;;;41.45;15.48;;;;;;;;;;10299190;28;20094;-74
2022/03/13 17:35:56;;;;;;;35.05;14.18;;;;;;;;;;10294098;28;20412;-75
2022/03/13 17:40:57;;;;;;;35.78;13.50;;;;;;;;;;10322400;28;20034;-71
2022/03/13 17:45:57;;;;;;;33.92;13.15;;;;;;;;;;10322113;28;20022;-75
2022/03/13 17:50:58;;;;;;;40.83;15.15;;;;;;;;;;10319109;28;20023;-70
2022/03/13 17:55:58;;;;;;;36.10;15.87;;;;;;;;;;10283736;28;20493;-70
2022/03/13 18:00:58;;;;;;;30.77;15.73;;;;;;;;;;10300794;28;20114;-71
2022/03/13 18:05:59;;;;;;;42.70;16.38;;;;;;;;;;10313547;28;20400;-75
2022/03/13 18:10:59;;;;;;;29.00;14.47;;;;;;;;;;10281930;28;20026;-74
2022/03/13 18:16:00;;;;;;;31.23;14.07;;;;;;;;;;10297681;28;20093;-74
2022/03/13 18:21:02;;;;;;;46.27;16.13;;;;;;;;;;10297235;28;20023;-74
2022/03/13 18:26:02;;;;;;;34.55;11.68;;;;;;;;;;10296134;28;20498;-74
2022/03/13 18:31:03;;;;;;;23.87;13.57;;;;;;;;;;10322405;28;20058;-72
2022/03/13 18:36:03;;;;;;;41.53;15.88;;;;;;;;;;10325813;28;20281;-75
2022/03/13 18:41:05;;;;;;;33.78;16.90;;;;;;;;;;10329983;28;20118;-71
2022/03/13 18:46:05;;;;;;;30.88;16.38;;;;;;;;;;10329648;28;20030;-74
2022/03/13 18:51:06;;;;;;;36.53;14.38;;;;;;;;;;10327792;28;20029;-70
2022/03/13 18:56:06;;;;;;;47.42;20.17;;;;;;;;;;10328989;28;20030;-75
2022/03/13 19:01:07;;;;;;;45.38;17.52;;;;;;;;;;10329565;28;20381;-74
2022/03/13 19:06:09;;;;;;;47.20;19.85;;;;;;;;;;10329572;28;20468;-76
2022/03/13 19:11:11;;;;;;;38.97;20.90;;;;;;;;;;10322387;28;20033;-74
2022/03/13 19:16:11;;;;;;;37.42;20.55;;;;;;;;;;10305299;28;20027;-70
2022/03/13 19:21:12;;;;;;;39.30;21.40;;;;;;;;;;10288020;28;20023;-73
2022/03/13 19:26:13;;;;;;;37.03;19.63;;;;;;;;;;10303986;28;20026;-74
2022/03/13 19:31:14;;;;;;;39.95;20.02;;;;;;;;;;10324238;28;20137;-71
2022/03/13 19:36:15;;;;;;;41.05;20.88;;;;;;;;;;10324574;28;20034;-70
2022/03/13 19:41:21;;;;;;;38.67;17.58;;;;;;;;;;10324411;28;20027;-72
2022/03/13 19:46:22;;;;;;;52.33;20.73;;;;;;;;;;10324410;28;20081;-71
2022/03/13 19:51:22;;;;;;;42.20;17.17;;;;;;;;;;10326681;28;20464;-74
2022/03/13 19:56:24;;;;;;;49.42;19.95;;;;;;;;;;10314485;28;20038;-72
2022/03/13 20:01:24;;;;;;;44.25;19.92;;;;;;;;;;10301071;28;20060;-73
2022/03/13 20:06:27;;;;;;;34.40;16.13;;;;;;;;;;10286804;28;20150;-75
2022/03/13 20:11:27;;;;;;;41.15;17.85;;;;;;;;;;10298622;28;20106;-71
2022/03/13 20:16:27;;;;;;;31.00;15.13;;;;;;;;;;10309497;28;20039;-73
2022/03/13 20:21:28;;;;;;;28.75;14.75;;;;;;;;;;10284713;28;20030;-71
2022/03/13 20:26:28;;;;;;;32.42;16.25;;;;;;;;;;10284962;28;20126;-71
2022/03/13 20:31:31;;;;;;;28.05;11.88;;;;;;;;;;10316425;28;20624;-71
2022/03/13 20:36:33;;;;;;;23.80;11.73;;;;;;;;;;10321712;28;20038;-74
2022/03/13 20:41:33;;;;;;;23.52;12.95;;;;;;;;;;10324653;28;20077;-75
2022/03/13 20:46:33;;;;;;;21.85;12.13;;;;;;;;;;10315170;28;20571;-71
2022/03/13 20:51:34;;;;;;;22.10;11.77;;;;;;;;;;10285132;28;20034;-74
2022/03/13 20:56:34;;;;;;;21.67;11.15;;;;;;;;;;10299938;28;20038;-70
2022/03/13 21:01:35;;;;;;;27.47;11.47;;;;;;;;;;10291467;28;20026;-71
2022/03/13 21:06:37;;;;;;;29.33;11.65;;;;;;;;;;10307293;28;20286;-75
2022/03/13 21:11:39;;;;;;;31.38;15.25;;;;;;;;;;10284951;28;20027;-73
2022/03/13 21:16:41;;;;;;;25.50;13.95;;;;;;;;;;10286517;28;20030;-75
2022/03/13 21:21:45;;;;;;;21.90;11.85;;;;;;;;;;10310297;28;20109;-77
2022/03/13 21:26:47;;;;;;;27.83;14.88;;;;;;;;;;10326265;28;20412;-71
2022/03/13 21:31:47;;;;;;;24.65;14.32;;;;;;;;;;10308712;28;20529;-75
2022/03/13 21:36:49;;;;;;;27.27;13.03;;;;;;;;;;10324771;28;20034;-71
2022/03/13 21:41:49;;;;;;;20.30;13.02;;;;;;;;;;10324333;28;20507;-72
2022/03/13 21:46:50;;;;;;;24.07;12.03;;;;;;;;;;10324186;28;20026;-73
2022/03/13 21:51:51;;;;;;;24.25;10.68;;;;;;;;;;10300275;28;20270;-70
2022/03/13 21:56:51;;;;;;;31.38;11.88;;;;;;;;;;10283949;28;20030;-70
2022/03/13 22:01:52;;;;;;;17.42;11.80;;;;;;;;;;10285068;28;20026;-71
2022/03/13 22:06:52;;;;;;;24.13;13.77;;;;;;;;;;10283506;28;20035;-70
2022/03/13 22:11:52;;;;;;;24.70;13.75;;;;;;;;;;10284388;28;20803;-70
2022/03/13 22:16:53;;;;;;;32.00;14.33;;;;;;;;;;10283505;28;20480;-71
2022/03/13 22:21:55;;;;;;;25.83;13.80;;;;;;;;;;10283310;28;20298;-71
2022/03/13 22:26:55;;;;;;;23.50;9.65;;;;;;;;;;10284123;28;20114;-70
2022/03/13 22:31:55;;;;;;;17.37;10.63;;;;;;;;;;10283162;28;20438;-71
2022/03/13 22:36:55;;;;;;;15.40;8.90;;;;;;;;;;10282848;28;20118;-71
2022/03/13 22:41:56;;;;;;;17.48;11.25;;;;;;;;;;10282496;28;20019;-71
2022/03/13 22:46:56;;;;;;;26.93;10.73;;;;;;;;;;10284279;28;20453;-73
2022/03/13 22:52:00;;;;;;;16.75;7.88;;;;;;;;;;10282574;28;20034;-71
2022/03/13 22:57:03;;;;;;;12.18;8.18;;;;;;;;;;10283619;28;20106;-69
2022/03/13 23:02:04;;;;;;;15.13;9.38;;;;;;;;;;10282386;28;20050;-70
2022/03/13 23:07:05;;;;;;;16.23;11.02;;;;;;;;;;10283703;28;20555;-74
2022/03/13 23:12:05;;;;;;;13.20;11.25;;;;;;;;;;10282566;28;20105;-70
2022/03/13 23:17:06;;;;;;;13.77;11.57;;;;;;;;;;10283495;28;20026;-73
2022/03/13 23:22:07;;;;;;;14.57;13.00;;;;;;;;;;10302154;28;20023;-73
2022/03/13 23:27:11;;;;;;;19.30;10.63;;;;;;;;;;10289079;28;20457;-71
2022/03/13 23:32:12;;;;;;;17.52;13.73;;;;;;;;;;10305096;28;20551;-71
2022/03/13 23:37:12;;;;;;;15.88;14.18;;;;;;;;;;10288891;28;20111;-70
2022/03/13 23:42:12;;;;;;;14.25;8.00;;;;;;;;;;10288665;28;20019;-69
2022/03/13 23:47:12;;;;;;;19.77;12.25;;;;;;;;;;10289503;28;20489;-70
2022/03/13 23:52:13;;;;;;;20.30;13.53;;;;;;;;;;10288289;28;20035;-74
2022/03/13 23:57:13;;;;;;;12.70;11.18;;;;;;;;;;10289533;28;20382;-73
